createdAt,value
2017-06-30T00:02:21.215Z,14.50
2017-06-30T00:04:50.255Z,14.60
2017-06-30T00:07:18.527Z,14.50
2017-06-30T00:09:46.839Z,14.50
2017-06-30T00:12:15.120Z,14.50
2017-06-30T00:14:43.392Z,14.50
2017-06-30T00:17:11.904Z,14.50
2017-06-30T00:19:40.943Z,14.40
2017-06-30T00:22:09.215Z,14.40
2017-06-30T00:24:37.716Z,14.40
2017-06-30T00:27:06.749Z,14.40
2017-06-30T00:29:35.032Z,14.30
2017-06-30T00:32:03.348Z,14.30
2017-06-30T00:34:32.555Z,14.30
2017-06-30T00:37:00.832Z,14.20
2017-06-30T00:39:29.160Z,14.30
2017-06-30T00:41:57.440Z,14.30
2017-06-30T00:44:25.715Z,14.20
2017-06-30T00:46:54.039Z,14.20
2017-06-30T00:49:22.315Z,14.20
2017-06-30T00:51:50.588Z,14.20
2017-06-30T00:54:18.912Z,14.30
2017-06-30T00:56:47.192Z,14.30
2017-06-30T00:59:15.463Z,14.20
2017-06-30T01:01:43.788Z,14.20
2017-06-30T01:04:13.008Z,14.20
2017-06-30T01:06:41.281Z,14.10
2017-06-30T01:09:09.686Z,14.10
2017-06-30T01:11:38.720Z,14.10
2017-06-30T01:14:07.145Z,14.10
2017-06-30T01:16:35.459Z,14.20
2017-06-30T01:19:03.736Z,14.10
2017-06-30T01:21:32.784Z,14.10
2017-06-30T01:24:01.104Z,14.00
2017-06-30T01:26:29.388Z,14.10
2017-06-30T01:28:57.664Z,14.10
2017-06-30T01:31:25.976Z,14.00
2017-06-30T01:33:55.028Z,13.90
2017-06-30T01:36:23.311Z,13.90
2017-06-30T01:38:52.399Z,13.80
2017-06-30T01:41:20.692Z,13.80
2017-06-30T01:43:48.965Z,13.80
2017-06-30T01:46:17.268Z,13.80
2017-06-30T01:48:45.552Z,13.70
2017-06-30T01:51:14.585Z,13.60
2017-06-30T01:53:42.932Z,13.60
2017-06-30T01:56:11.224Z,13.60
2017-06-30T01:58:39.505Z,13.60
2017-06-30T02:01:08.592Z,13.60
2017-06-30T02:03:37.640Z,13.60
2017-06-30T02:06:05.918Z,13.60
2017-06-30T02:08:34.223Z,13.60
2017-06-30T02:11:02.496Z,13.50
2017-06-30T02:13:30.777Z,13.40
2017-06-30T02:15:59.072Z,13.50
2017-06-30T02:18:28.115Z,13.50
2017-06-30T02:20:56.388Z,13.50
2017-06-30T02:23:24.696Z,13.70
2017-06-30T02:25:52.996Z,13.70
2017-06-30T02:28:21.284Z,13.70
2017-06-30T02:30:49.575Z,13.70
2017-06-30T02:33:17.852Z,13.70
2017-06-30T02:35:46.127Z,13.70
2017-06-30T02:38:14.437Z,13.80
2017-06-30T02:40:43.475Z,13.80
2017-06-30T02:43:11.761Z,13.70
2017-06-30T02:45:40.060Z,13.80
2017-06-30T02:48:08.331Z,13.80
2017-06-30T02:50:36.607Z,13.90
2017-06-30T02:53:04.924Z,13.90
2017-06-30T02:55:33.960Z,13.90
2017-06-30T02:58:02.236Z,13.80
2017-06-30T03:00:30.552Z,13.80
2017-06-30T03:02:58.824Z,13.90
2017-06-30T03:05:27.105Z,13.90
2017-06-30T03:07:55.417Z,13.90
2017-06-30T03:10:24.460Z,13.90
2017-06-30T03:12:52.742Z,13.90
2017-06-30T03:15:21.056Z,13.90
2017-06-30T03:17:49.327Z,13.90
2017-06-30T03:20:17.611Z,13.90
2017-06-30T03:22:45.920Z,14.00
2017-06-30T03:25:14.191Z,14.00
2017-06-30T03:27:42.472Z,14.00
2017-06-30T03:30:10.776Z,14.10
2017-06-30T03:32:39.047Z,14.10
2017-06-30T03:35:08.088Z,14.00
2017-06-30T03:37:36.594Z,14.00
2017-06-30T03:40:05.631Z,14.10
2017-06-30T03:42:33.920Z,14.00
2017-06-30T03:45:02.221Z,14.10
2017-06-30T03:47:30.495Z,14.10
2017-06-30T03:49:58.775Z,14.20
2017-06-30T03:52:27.078Z,14.20
2017-06-30T03:54:56.116Z,14.20
2017-06-30T03:57:24.399Z,14.20
2017-06-30T03:59:52.819Z,14.20
2017-06-30T04:02:21.099Z,14.20
2017-06-30T04:04:49.383Z,14.20
2017-06-30T04:07:17.703Z,14.20
2017-06-30T04:09:45.979Z,14.20
2017-06-30T04:12:14.255Z,14.30
2017-06-30T04:14:42.576Z,14.30
2017-06-30T04:17:10.856Z,14.30
2017-06-30T04:19:39.128Z,14.30
2017-06-30T04:22:07.428Z,14.40
2017-06-30T04:24:36.580Z,14.50
2017-06-30T04:27:04.855Z,14.40
2017-06-30T04:29:33.164Z,14.60
2017-06-30T04:32:01.451Z,14.50
2017-06-30T04:34:29.727Z,14.60
2017-06-30T04:36:58.028Z,14.60
2017-06-30T04:39:27.076Z,14.70
2017-06-30T04:41:55.355Z,14.70
2017-06-30T04:44:24.452Z,14.80
2017-06-30T04:46:52.727Z,14.80
2017-06-30T04:49:21.008Z,14.90
2017-06-30T04:51:49.328Z,15.00
2017-06-30T04:54:18.367Z,15.00
2017-06-30T04:56:46.640Z,15.00
2017-06-30T04:59:15.239Z,15.10
2017-06-30T05:01:44.281Z,15.10
2017-06-30T05:04:12.561Z,15.00
2017-06-30T05:06:40.892Z,15.00
2017-06-30T05:09:09.161Z,15.00
2017-06-30T05:11:37.439Z,15.00
2017-06-30T05:14:05.751Z,15.10
2017-06-30T05:16:34.031Z,15.20
2017-06-30T05:19:02.309Z,15.10
2017-06-30T05:21:30.624Z,15.10
2017-06-30T05:23:58.900Z,15.10
2017-06-30T05:26:27.182Z,15.10
2017-06-30T05:28:55.501Z,15.10
2017-06-30T05:31:24.541Z,15.10
2017-06-30T05:33:52.816Z,15.00
2017-06-30T05:36:21.483Z,15.00
2017-06-30T05:38:49.756Z,15.10
2017-06-30T05:41:18.032Z,15.10
2017-06-30T05:43:47.212Z,15.20
2017-06-30T05:46:16.251Z,15.30
2017-06-30T05:48:45.340Z,15.30
2017-06-30T05:51:13.652Z,15.30
2017-06-30T05:53:41.927Z,15.30
2017-06-30T05:56:10.204Z,15.50
2017-06-30T05:58:38.512Z,15.60
2017-06-30T06:01:07.560Z,15.60
2017-06-30T06:03:35.836Z,15.60
2017-06-30T06:06:04.155Z,15.60
2017-06-30T06:08:32.432Z,15.50
2017-06-30T06:11:00.707Z,15.60
2017-06-30T06:13:29.028Z,15.60
2017-06-30T06:15:57.300Z,15.60
2017-06-30T06:18:25.580Z,15.70
2017-06-30T06:20:53.892Z,15.70
2017-06-30T06:23:22.936Z,15.90
2017-06-30T06:25:51.214Z,15.80
2017-06-30T06:28:19.520Z,15.90
2017-06-30T06:30:47.796Z,16.00
2017-06-30T06:33:16.071Z,16.10
2017-06-30T06:35:44.374Z,16.20
2017-06-30T06:38:13.416Z,16.40
2017-06-30T06:40:41.688Z,16.30
2017-06-30T06:43:09.999Z,16.40
2017-06-30T06:45:38.272Z,16.50
2017-06-30T06:48:06.548Z,16.60
2017-06-30T06:50:34.868Z,16.80
2017-06-30T06:53:03.908Z,17.20
2017-06-30T06:55:32.179Z,17.10
2017-06-30T06:58:00.489Z,17.30
2017-06-30T07:00:29.107Z,17.40
2017-06-30T07:02:57.384Z,17.40
2017-06-30T07:05:25.707Z,17.50
2017-06-30T07:07:53.989Z,17.30
2017-06-30T07:10:22.336Z,17.40
2017-06-30T07:12:51.052Z,17.40
2017-06-30T07:15:20.096Z,17.40
2017-06-30T07:17:48.368Z,17.30
2017-06-30T07:20:16.672Z,17.50
2017-06-30T07:22:44.944Z,17.60
2017-06-30T07:25:13.224Z,17.70
2017-06-30T07:27:41.528Z,17.80
2017-06-30T07:30:10.672Z,17.90
2017-06-30T07:32:38.944Z,17.80
2017-06-30T07:35:07.264Z,17.80
2017-06-30T07:37:35.535Z,17.90
2017-06-30T07:40:03.812Z,17.80
2017-06-30T07:42:32.233Z,17.90
2017-06-30T07:45:01.271Z,18.10
2017-06-30T07:47:29.548Z,18.00
2017-06-30T07:49:57.859Z,18.10
2017-06-30T07:52:26.136Z,18.00
2017-06-30T07:54:54.411Z,17.90
2017-06-30T07:57:22.743Z,18.00
2017-06-30T07:59:51.025Z,17.80
2017-06-30T08:02:19.301Z,17.70
2017-06-30T08:04:47.616Z,17.80
2017-06-30T08:07:15.923Z,17.80
2017-06-30T08:09:44.208Z,17.80
2017-06-30T08:12:12.516Z,17.90
2017-06-30T08:14:40.800Z,18.10
2017-06-30T08:17:09.134Z,18.20
2017-06-30T08:19:37.443Z,18.20
2017-06-30T08:22:05.727Z,18.30
2017-06-30T08:24:34.004Z,18.40
2017-06-30T08:27:03.072Z,18.40
2017-06-30T08:29:32.116Z,18.50
2017-06-30T08:32:00.404Z,18.40
2017-06-30T08:34:28.776Z,18.60
2017-06-30T08:36:58.991Z,18.60
2017-06-30T08:39:28.058Z,18.60
2017-06-30T08:41:56.341Z,18.50
2017-06-30T08:44:24.667Z,18.60
2017-06-30T08:46:52.984Z,18.90
2017-06-30T08:49:21.262Z,18.90
2017-06-30T08:51:49.533Z,18.90
2017-06-30T08:54:17.940Z,19.20
2017-06-30T08:56:46.983Z,19.00
2017-06-30T08:59:15.260Z,19.00
2017-06-30T09:01:43.576Z,18.80
2017-06-30T09:04:11.902Z,18.80
2017-06-30T09:06:40.204Z,18.80
2017-06-30T09:09:08.749Z,18.80
2017-06-30T09:11:37.024Z,18.60
2017-06-30T09:14:05.303Z,18.40
2017-06-30T09:16:33.632Z,18.20
2017-06-30T09:19:01.917Z,18.10
2017-06-30T09:21:30.184Z,18.10
2017-06-30T09:23:58.603Z,18.10
2017-06-30T09:26:27.649Z,19.00
2017-06-30T09:28:55.928Z,19.00
2017-06-30T09:31:24.224Z,19.40
2017-06-30T09:33:52.507Z,19.70
2017-06-30T09:36:20.796Z,20.00
2017-06-30T09:38:49.104Z,19.90
2017-06-30T09:41:17.380Z,19.90
2017-06-30T09:43:45.667Z,20.30
2017-06-30T09:46:13.972Z,20.50
2017-06-30T09:48:43.066Z,20.00
2017-06-30T09:51:12.096Z,19.60
2017-06-30T09:53:40.421Z,19.60
2017-06-30T09:56:08.692Z,19.60
2017-06-30T09:58:36.973Z,19.50
2017-06-30T10:01:05.276Z,19.50
2017-06-30T10:03:34.320Z,19.40
2017-06-30T10:06:02.600Z,19.40
2017-06-30T10:08:30.914Z,20.00
2017-06-30T10:10:59.199Z,20.50
2017-06-30T10:13:27.471Z,20.60
2017-06-30T10:15:55.796Z,20.60
2017-06-30T10:18:24.080Z,20.50
2017-06-30T10:20:53.442Z,20.10
2017-06-30T10:23:22.716Z,19.60
2017-06-30T10:25:50.999Z,19.50
2017-06-30T10:28:19.272Z,19.60
2017-06-30T10:30:47.580Z,19.70
2017-06-30T10:33:16.620Z,20.20
2017-06-30T10:35:44.990Z,20.10
2017-06-30T10:38:13.296Z,20.30
2017-06-30T10:40:42.464Z,20.90
2017-06-30T10:43:10.736Z,20.80
2017-06-30T10:45:39.800Z,21.50
2017-06-30T10:48:08.082Z,21.40
2017-06-30T10:50:37.116Z,21.10
2017-06-30T10:53:05.422Z,21.10
2017-06-30T10:55:34.467Z,20.20
2017-06-30T10:58:02.762Z,20.20
2017-06-30T11:00:31.836Z,20.80
2017-06-30T11:03:00.888Z,21.50
2017-06-30T11:05:29.167Z,21.40
2017-06-30T11:07:57.488Z,21.80
2017-06-30T11:10:25.772Z,21.90
2017-06-30T11:12:54.068Z,21.70
2017-06-30T11:15:23.147Z,21.90
2017-06-30T11:17:52.211Z,21.80
2017-06-30T11:20:20.480Z,21.70
2017-06-30T11:22:49.547Z,22.10
2017-06-30T11:25:17.828Z,22.00
2017-06-30T11:27:46.116Z,21.90
2017-06-30T11:30:14.428Z,22.30
2017-06-30T11:32:42.713Z,22.40
2017-06-30T11:35:11.751Z,22.70
2017-06-30T11:37:40.060Z,22.60
2017-06-30T11:40:08.362Z,22.10
2017-06-30T11:42:36.631Z,21.80
2017-06-30T11:45:04.953Z,21.60
2017-06-30T11:47:33.248Z,21.50
2017-06-30T11:50:01.532Z,21.30
2017-06-30T11:52:29.845Z,21.30
2017-06-30T11:54:58.128Z,21.20
2017-06-30T11:57:26.407Z,21.20
2017-06-30T11:59:54.715Z,21.20
2017-06-30T12:02:22.999Z,21.10
2017-06-30T12:04:51.271Z,21.60
2017-06-30T12:07:19.624Z,22.40
2017-06-30T12:09:47.924Z,22.90
2017-06-30T12:12:16.195Z,22.90
2017-06-30T12:14:44.521Z,23.20
2017-06-30T12:17:12.792Z,23.10
2017-06-30T12:19:41.080Z,22.90
2017-06-30T12:22:09.561Z,23.10
2017-06-30T12:24:38.660Z,23.60
2017-06-30T12:27:06.936Z,23.60
2017-06-30T12:29:35.256Z,23.80
2017-06-30T12:32:04.304Z,23.10
2017-06-30T12:34:32.732Z,23.00
2017-06-30T12:37:01.048Z,23.40
2017-06-30T12:39:29.333Z,23.60
2017-06-30T12:41:58.367Z,24.50
2017-06-30T12:44:26.712Z,24.40
2017-06-30T12:46:54.985Z,24.30
2017-06-30T12:49:23.260Z,24.50
2017-06-30T12:51:51.588Z,24.20
2017-06-30T12:54:19.863Z,24.00
2017-06-30T12:56:48.145Z,24.10
2017-06-30T12:59:16.456Z,24.60
2017-06-30T13:01:44.752Z,25.00
2017-06-30T13:04:13.057Z,25.20
2017-06-30T13:06:41.356Z,24.90
2017-06-30T13:09:09.637Z,24.30
2017-06-30T13:11:37.928Z,24.20
2017-06-30T13:14:06.240Z,24.10
2017-06-30T13:16:34.520Z,23.70
2017-06-30T13:19:02.804Z,23.40
2017-06-30T13:21:31.139Z,22.90
2017-06-30T13:23:59.417Z,22.70
2017-06-30T13:26:27.710Z,22.40
2017-06-30T13:28:56.801Z,22.40
2017-06-30T13:31:25.845Z,23.40
2017-06-30T13:33:54.120Z,23.30
2017-06-30T13:36:22.444Z,23.90
2017-06-30T13:38:50.734Z,23.80
2017-06-30T13:41:19.003Z,24.10
2017-06-30T13:43:47.316Z,24.30
2017-06-30T13:46:15.595Z,24.90
2017-06-30T13:48:43.876Z,25.30
2017-06-30T13:51:12.201Z,25.70
2017-06-30T13:53:40.488Z,25.80
2017-06-30T13:56:08.772Z,26.00
2017-06-30T13:58:37.085Z,26.30
2017-06-30T14:01:05.365Z,25.80
2017-06-30T14:03:33.651Z,25.40
2017-06-30T14:06:01.976Z,25.20
2017-06-30T14:08:30.265Z,25.40
2017-06-30T14:10:58.544Z,25.20
2017-06-30T14:13:26.868Z,25.50
2017-06-30T14:15:55.160Z,25.80
2017-06-30T14:18:23.444Z,26.20
2017-06-30T14:20:52.532Z,26.70
2017-06-30T14:23:21.615Z,26.10
2017-06-30T14:25:50.652Z,26.30
2017-06-30T14:28:18.960Z,26.30
2017-06-30T14:30:47.244Z,26.10
2017-06-30T14:33:15.526Z,26.40
2017-06-30T14:35:43.930Z,26.20
2017-06-30T14:38:13.047Z,26.40
2017-06-30T14:40:41.323Z,26.30
2017-06-30T14:43:09.639Z,26.10
2017-06-30T14:45:38.688Z,26.00
2017-06-30T14:48:06.972Z,26.00
2017-06-30T14:50:36.065Z,26.00
2017-06-30T14:53:05.111Z,25.30
2017-06-30T14:55:33.388Z,25.30
2017-06-30T14:58:01.740Z,25.00
2017-06-30T15:00:30.020Z,24.90
2017-06-30T15:02:59.072Z,25.10
2017-06-30T15:05:27.396Z,25.10
2017-06-30T15:07:55.676Z,25.30
2017-06-30T15:10:23.960Z,25.20
2017-06-30T15:12:52.306Z,24.80
2017-06-30T15:15:20.580Z,24.70
2017-06-30T15:17:48.869Z,24.80
2017-06-30T15:20:17.968Z,24.60
2017-06-30T15:22:46.247Z,24.60
2017-06-30T15:25:14.528Z,24.50
2017-06-30T15:27:42.836Z,24.70
2017-06-30T15:30:11.881Z,24.50
2017-06-30T15:32:40.165Z,24.40
2017-06-30T15:35:08.472Z,24.30
2017-06-30T15:37:36.751Z,24.50
2017-06-30T15:40:05.032Z,24.40
2017-06-30T15:42:33.352Z,24.30
2017-06-30T15:45:01.628Z,24.30
2017-06-30T15:47:29.907Z,24.40
2017-06-30T15:49:58.226Z,24.40
2017-06-30T15:52:26.500Z,24.10
2017-06-30T15:54:54.792Z,24.20
2017-06-30T15:57:23.104Z,23.90
2017-06-30T15:59:52.155Z,24.10
2017-06-30T16:02:20.427Z,24.00
2017-06-30T16:04:49.521Z,23.90
2017-06-30T16:07:18.560Z,23.90
2017-06-30T16:09:46.840Z,23.90
2017-06-30T16:12:15.168Z,23.90
2017-06-30T16:14:43.448Z,23.70
2017-06-30T16:17:11.943Z,23.80
2017-06-30T16:19:41.024Z,23.60
2017-06-30T16:22:10.073Z,23.60
2017-06-30T16:24:38.352Z,23.50
2017-06-30T16:27:06.676Z,23.50
2017-06-30T16:29:34.963Z,23.50
2017-06-30T16:32:03.232Z,23.70
2017-06-30T16:34:31.547Z,23.50
2017-06-30T16:36:59.828Z,23.30
2017-06-30T16:39:29.712Z,23.20
2017-06-30T16:41:58.084Z,23.10
2017-06-30T16:44:26.360Z,23.20
2017-06-30T16:46:54.635Z,23.10
2017-06-30T16:49:23.136Z,22.90
2017-06-30T16:51:52.188Z,22.60
2017-06-30T16:54:20.460Z,22.50
2017-06-30T16:56:49.552Z,22.50
2017-06-30T16:59:18.592Z,22.60
2017-06-30T17:01:46.865Z,22.50
2017-06-30T17:04:15.173Z,22.60
2017-06-30T17:06:43.448Z,22.80
2017-06-30T17:09:11.723Z,22.80
2017-06-30T17:11:40.044Z,22.60
2017-06-30T17:14:08.340Z,22.60
2017-06-30T17:16:36.868Z,22.60
2017-06-30T17:19:05.940Z,22.40
2017-06-30T17:21:34.983Z,22.40
2017-06-30T17:24:03.260Z,22.40
2017-06-30T17:26:31.583Z,22.30
2017-06-30T17:28:59.859Z,22.10
2017-06-30T17:31:28.148Z,22.00
2017-06-30T17:33:56.456Z,22.00
2017-06-30T17:36:24.753Z,22.00
2017-06-30T17:38:53.029Z,22.00
2017-06-30T17:41:21.336Z,22.00
2017-06-30T17:43:49.612Z,22.00
2017-06-30T17:46:17.893Z,22.00
2017-06-30T17:48:46.211Z,21.80
2017-06-30T17:51:15.252Z,21.70
2017-06-30T17:53:43.531Z,21.60
2017-06-30T17:56:12.004Z,21.80
2017-06-30T17:58:41.049Z,21.80
2017-06-30T18:01:09.332Z,21.70
2017-06-30T18:03:37.652Z,21.80
2017-06-30T18:06:05.927Z,21.70
2017-06-30T18:08:34.211Z,21.70
2017-06-30T18:11:02.695Z,21.70
2017-06-30T18:13:31.742Z,21.80
2017-06-30T18:16:00.021Z,21.70
2017-06-30T18:18:28.347Z,21.70
2017-06-30T18:20:56.656Z,21.70
2017-06-30T18:23:25.700Z,21.70
2017-06-30T18:25:54.016Z,21.60
2017-06-30T18:28:23.092Z,21.40
2017-06-30T18:30:51.376Z,21.40
2017-06-30T18:33:19.696Z,21.30
2017-06-30T18:35:47.980Z,21.40
2017-06-30T18:38:16.264Z,21.30
2017-06-30T18:40:44.597Z,21.20
2017-06-30T18:43:13.636Z,21.20
2017-06-30T18:45:41.924Z,21.20
2017-06-30T18:48:11.111Z,21.20
2017-06-30T18:50:40.168Z,21.20
2017-06-30T18:53:08.435Z,21.10
2017-06-30T18:55:36.839Z,21.10
2017-06-30T18:58:05.113Z,21.10
2017-06-30T19:00:33.392Z,21.10
2017-06-30T19:03:01.710Z,20.90
2017-06-30T19:05:30.750Z,20.80
2017-06-30T19:07:59.028Z,20.70
2017-06-30T19:10:27.356Z,20.70
2017-06-30T19:12:55.714Z,20.50
2017-06-30T19:15:24.036Z,20.30
2017-06-30T19:17:52.381Z,20.10
2017-06-30T19:20:20.656Z,19.90
2017-06-30T19:22:49.700Z,19.70
2017-06-30T19:25:18.007Z,19.70
2017-06-30T19:27:46.288Z,19.60
2017-06-30T19:30:14.564Z,19.50
2017-06-30T19:32:42.879Z,19.50
2017-06-30T19:35:11.920Z,19.20
2017-06-30T19:37:40.200Z,19.20
2017-06-30T19:40:08.511Z,19.10
2017-06-30T19:42:36.800Z,19.00
2017-06-30T19:45:05.076Z,18.90
2017-06-30T19:47:33.391Z,18.80
2017-06-30T19:50:01.663Z,18.70
2017-06-30T19:52:29.944Z,18.60
2017-06-30T19:54:58.452Z,18.40
2017-06-30T19:57:27.495Z,18.30
2017-06-30T19:59:56.776Z,18.30
2017-06-30T20:02:25.105Z,18.20
2017-06-30T20:04:53.448Z,18.00
2017-06-30T20:07:22.534Z,18.10
2017-06-30T20:09:51.624Z,18.00
2017-06-30T20:12:20.839Z,18.00
2017-06-30T20:14:49.112Z,18.00
2017-06-30T20:17:17.440Z,17.90
2017-06-30T20:19:45.729Z,17.90
2017-06-30T20:22:14.013Z,17.90
2017-06-30T20:24:42.336Z,17.90
2017-06-30T20:27:10.617Z,17.90
2017-06-30T20:29:38.890Z,17.90
2017-06-30T20:32:07.199Z,17.90
2017-06-30T20:34:35.471Z,17.80
2017-06-30T20:37:03.747Z,17.70
2017-06-30T20:39:32.171Z,17.60
2017-06-30T20:42:01.212Z,17.60
2017-06-30T20:44:29.494Z,17.60
2017-06-30T20:46:57.805Z,17.60
2017-06-30T20:49:26.080Z,17.60
2017-06-30T20:51:54.360Z,17.50
2017-06-30T20:54:22.676Z,17.50
2017-06-30T20:56:50.952Z,17.50
2017-06-30T20:59:19.228Z,17.40
2017-06-30T21:01:47.587Z,17.40
2017-06-30T21:04:15.859Z,17.30
2017-06-30T21:06:44.131Z,17.50
2017-06-30T21:09:12.447Z,17.60
2017-06-30T21:11:40.732Z,17.70
2017-06-30T21:14:09.003Z,17.70
2017-06-30T21:16:37.316Z,17.80
2017-06-30T21:19:05.605Z,17.80
2017-06-30T21:21:33.880Z,17.80
2017-06-30T21:24:02.292Z,17.80
2017-06-30T21:26:31.358Z,17.70
2017-06-30T21:28:59.622Z,17.60
2017-06-30T21:31:27.927Z,17.70
2017-06-30T21:33:56.217Z,17.60
2017-06-30T21:36:24.506Z,17.50
2017-06-30T21:38:52.820Z,17.60
2017-06-30T21:41:21.101Z,17.60
2017-06-30T21:43:49.672Z,17.60
2017-06-30T21:46:17.987Z,17.50
2017-06-30T21:48:46.265Z,17.50
2017-06-30T21:51:14.548Z,17.60
2017-06-30T21:53:42.865Z,17.60
2017-06-30T21:56:11.904Z,17.70
2017-06-30T21:58:40.181Z,17.60
2017-06-30T22:01:08.509Z,17.60
2017-06-30T22:03:36.787Z,17.60
2017-06-30T22:06:05.059Z,17.60
2017-06-30T22:08:33.376Z,17.50
2017-06-30T22:11:01.657Z,17.30
2017-06-30T22:13:29.936Z,17.30
2017-06-30T22:15:58.431Z,17.30
2017-06-30T22:18:27.476Z,17.20
2017-06-30T22:20:55.764Z,17.10
2017-06-30T22:23:24.077Z,17.00
2017-06-30T22:25:52.364Z,16.90
2017-06-30T22:28:20.647Z,16.90
2017-06-30T22:30:48.948Z,16.70
2017-06-30T22:33:17.216Z,16.70
2017-06-30T22:35:46.424Z,16.60
2017-06-30T22:38:14.744Z,16.50
2017-06-30T22:40:43.019Z,16.50
2017-06-30T22:43:11.303Z,16.50
2017-06-30T22:45:39.620Z,16.60
2017-06-30T22:48:08.681Z,16.50
2017-06-30T22:50:36.952Z,16.40
2017-06-30T22:53:06.023Z,16.50
2017-06-30T22:55:35.064Z,16.50
2017-06-30T22:58:03.340Z,16.40
2017-06-30T23:00:31.672Z,16.50
2017-06-30T23:02:59.976Z,16.50
2017-06-30T23:05:28.266Z,16.40
2017-06-30T23:07:56.610Z,16.20
2017-06-30T23:10:24.904Z,16.20
2017-06-30T23:12:53.177Z,16.10
2017-06-30T23:15:21.507Z,16.20
2017-06-30T23:17:49.776Z,16.10
2017-06-30T23:20:18.819Z,16.00
2017-06-30T23:22:47.141Z,15.90
2017-06-30T23:25:15.407Z,15.90
2017-06-30T23:27:43.690Z,15.80
2017-06-30T23:30:12.004Z,15.80
2017-06-30T23:32:40.280Z,15.60
2017-06-30T23:35:08.568Z,15.60
2017-06-30T23:37:36.913Z,15.70
2017-06-30T23:40:05.184Z,15.70
2017-06-30T23:42:33.464Z,15.70
2017-06-30T23:45:02.017Z,15.50
2017-06-30T23:47:30.288Z,15.60
2017-06-30T23:49:58.568Z,15.40
2017-06-30T23:52:26.876Z,15.40
2017-06-30T23:54:55.164Z,15.40
2017-06-30T23:57:23.448Z,15.40
2017-06-30T23:59:51.752Z,15.40
